createdAt,value
2018-09-05T00:00:28.288Z,15.57
2018-09-05T00:02:56.499Z,14.67
2018-09-05T00:05:24.765Z,14.83
2018-09-05T00:07:52.988Z,14.43
2018-09-05T00:10:21.236Z,15.43
2018-09-05T00:12:49.468Z,13.53
2018-09-05T00:15:17.717Z,12.87
2018-09-05T00:17:45.932Z,12.50
2018-09-05T00:20:14.157Z,13.43
2018-09-05T00:22:42.374Z,12.93
2018-09-05T00:25:10.616Z,13.10
2018-09-05T00:27:38.849Z,13.40
2018-09-05T00:30:07.132Z,13.07
2018-09-05T00:32:35.361Z,13.63
2018-09-05T00:35:03.613Z,13.47
2018-09-05T00:37:31.849Z,12.93
2018-09-05T00:40:00.188Z,13.27
2018-09-05T00:42:28.422Z,12.20
2018-09-05T00:44:56.624Z,12.73
2018-09-05T00:47:24.894Z,12.87
2018-09-05T00:49:57.344Z,12.80
2018-09-05T00:52:25.612Z,12.50
2018-09-05T00:54:54.228Z,12.90
2018-09-05T00:57:22.441Z,12.63
2018-09-05T00:59:50.813Z,12.87
2018-09-05T01:02:19.062Z,13.33
2018-09-05T01:04:47.281Z,14.00
2018-09-05T01:07:23.896Z,12.87
2018-09-05T01:09:52.157Z,13.17
2018-09-05T01:12:21.438Z,14.23
2018-09-05T01:14:50.548Z,13.57
2018-09-05T01:17:18.784Z,13.00
2018-09-05T01:19:47.013Z,14.37
2018-09-05T01:22:15.256Z,13.87
2018-09-05T01:24:43.472Z,13.27
2018-09-05T01:27:12.168Z,13.10
2018-09-05T01:29:41.340Z,12.97
2018-09-05T01:32:10.538Z,12.70
2018-09-05T01:34:39.928Z,12.40
2018-09-05T01:37:08.535Z,13.30
2018-09-05T01:39:36.772Z,13.13
2018-09-05T01:42:05.029Z,13.13
2018-09-05T01:44:33.280Z,13.17
2018-09-05T01:47:01.548Z,12.70
2018-09-05T01:49:29.810Z,13.03
2018-09-05T01:51:59.288Z,13.33
2018-09-05T01:54:27.559Z,13.13
2018-09-05T01:56:56.259Z,13.20
2018-09-05T01:59:25.381Z,12.80
2018-09-05T02:01:53.584Z,13.57
2018-09-05T02:04:21.821Z,13.13
2018-09-05T02:06:50.072Z,13.37
2018-09-05T02:09:18.312Z,13.07
2018-09-05T02:11:46.538Z,13.17
2018-09-05T02:14:14.768Z,13.37
2018-09-05T02:16:43.186Z,13.30
2018-09-05T02:19:11.427Z,12.50
2018-09-05T02:21:39.642Z,12.80
2018-09-05T02:24:07.884Z,13.20
2018-09-05T02:26:36.091Z,12.87
2018-09-05T02:29:04.340Z,12.40
2018-09-05T02:31:32.555Z,13.27
2018-09-05T02:34:00.848Z,12.60
2018-09-05T02:36:29.084Z,12.77
2018-09-05T02:38:57.328Z,13.43
2018-09-05T02:41:25.565Z,13.17
2018-09-05T02:44:24.330Z,13.93
2018-09-05T02:46:52.697Z,14.17
2018-09-05T02:49:20.963Z,12.77
2018-09-05T02:51:49.200Z,13.70
2018-09-05T02:54:17.433Z,13.60
2018-09-05T02:56:45.675Z,14.67
2018-09-05T02:59:13.892Z,15.37
2018-09-05T03:01:42.125Z,15.17
2018-09-05T03:04:10.338Z,15.13
2018-09-05T03:06:38.572Z,14.73
2018-09-05T03:09:07.460Z,14.00
2018-09-05T03:11:35.737Z,13.90
2018-09-05T03:14:03.957Z,16.27
2018-09-05T03:16:32.196Z,15.73
2018-09-05T03:19:00.424Z,17.67
2018-09-05T03:21:28.668Z,17.20
2018-09-05T03:23:56.904Z,16.83
2018-09-05T03:26:25.152Z,16.63
2018-09-05T03:28:53.386Z,18.20
2018-09-05T03:31:21.620Z,16.20
2018-09-05T03:33:49.868Z,15.60
2018-09-05T03:36:18.220Z,16.40
2018-09-05T03:38:46.396Z,14.60
2018-09-05T03:41:14.604Z,15.00
2018-09-05T03:43:42.860Z,14.77
2018-09-05T03:46:11.078Z,16.57
2018-09-05T03:48:39.388Z,15.33
2018-09-05T03:51:07.612Z,17.03
2018-09-05T03:53:35.880Z,16.30
2018-09-05T03:56:04.140Z,16.90
2018-09-05T03:58:32.408Z,16.77
2018-09-05T04:01:00.645Z,17.50
2018-09-05T04:03:28.892Z,18.33
2018-09-05T04:05:57.149Z,17.30
2018-09-05T04:08:25.401Z,17.07
2018-09-05T04:10:53.616Z,16.63
2018-09-05T04:13:21.868Z,16.80
2018-09-05T04:15:50.117Z,18.20
2018-09-05T04:18:18.357Z,18.07
2018-09-05T04:20:46.576Z,18.23
2018-09-05T04:23:14.850Z,19.03
2018-09-05T04:25:43.077Z,18.60
2018-09-05T04:28:11.369Z,18.37
2018-09-05T04:30:39.585Z,19.03
2018-09-05T04:33:07.833Z,17.33
2018-09-05T04:35:36.180Z,19.47
2018-09-05T04:38:04.400Z,18.20
2018-09-05T04:40:32.652Z,18.93
2018-09-05T04:43:00.902Z,18.50
2018-09-05T04:45:29.798Z,19.93
2018-09-05T04:47:58.081Z,18.20
2018-09-05T04:50:26.456Z,17.90
2018-09-05T04:52:54.676Z,18.73
2018-09-05T04:55:22.934Z,17.47
2018-09-05T04:57:51.242Z,17.60
2018-09-05T05:00:19.742Z,17.47
2018-09-05T05:02:47.988Z,16.63
2018-09-05T05:05:16.260Z,16.50
2018-09-05T05:07:44.484Z,17.47
2018-09-05T05:10:12.740Z,16.90
2018-09-05T05:12:40.975Z,16.50
2018-09-05T05:15:09.200Z,16.60
2018-09-05T05:17:37.437Z,16.43
2018-09-05T05:20:05.686Z,15.93
2018-09-05T05:22:33.895Z,15.30
2018-09-05T05:25:02.108Z,15.20
2018-09-05T05:27:30.356Z,15.33
2018-09-05T05:29:58.576Z,16.53
2018-09-05T05:32:26.862Z,15.40
2018-09-05T05:34:55.167Z,15.13
2018-09-05T05:37:23.417Z,15.90
2018-09-05T05:39:51.656Z,15.80
2018-09-05T05:42:19.913Z,15.50
2018-09-05T05:44:48.182Z,15.20
2018-09-05T05:47:16.443Z,14.90
2018-09-05T05:49:44.704Z,15.17
2018-09-05T05:52:12.938Z,15.23
2018-09-05T05:54:41.180Z,14.60
2018-09-05T05:57:09.412Z,16.07
2018-09-05T05:59:37.657Z,16.13
2018-09-05T06:02:05.889Z,15.43
2018-09-05T06:04:34.175Z,15.60
2018-09-05T06:07:02.445Z,15.70
2018-09-05T06:09:30.680Z,14.80
2018-09-05T06:11:58.997Z,13.73
2018-09-05T06:14:27.181Z,16.23
2018-09-05T06:16:55.428Z,15.40
2018-09-05T06:19:23.874Z,15.73
2018-09-05T06:21:52.140Z,16.63
2018-09-05T06:24:20.401Z,17.23
2018-09-05T06:26:48.736Z,18.00
2018-09-05T06:29:17.477Z,16.90
2018-09-05T06:31:46.360Z,16.83
2018-09-05T06:34:14.919Z,16.63
2018-09-05T06:36:43.305Z,17.30
2018-09-05T06:39:11.764Z,17.20
2018-09-05T06:41:40.332Z,18.33
2018-09-05T06:44:09.089Z,19.07
2018-09-05T06:46:37.404Z,17.30
2018-09-05T06:49:06.703Z,17.63
2018-09-05T06:51:34.989Z,17.87
2018-09-05T06:54:03.274Z,16.90
2018-09-05T06:56:31.508Z,16.03
2018-09-05T06:58:59.821Z,16.00
2018-09-05T07:01:28.156Z,16.10
2018-09-05T07:03:56.480Z,16.17
2018-09-05T07:06:24.689Z,16.27
2018-09-05T07:08:52.996Z,16.40
2018-09-05T07:11:22.243Z,16.23
2018-09-05T07:13:50.465Z,19.27
2018-09-05T07:16:18.768Z,19.47
2018-09-05T07:18:47.090Z,20.13
2018-09-05T07:21:16.002Z,19.83
2018-09-05T07:23:44.160Z,17.70
2018-09-05T07:26:12.438Z,17.00
2018-09-05T07:28:40.668Z,17.17
2018-09-05T07:31:10.012Z,16.47
2018-09-05T07:33:38.317Z,16.83
2018-09-05T07:36:06.587Z,18.30
2018-09-05T07:38:35.521Z,17.40
2018-09-05T07:41:03.809Z,16.67
2018-09-05T07:43:32.053Z,16.80
2018-09-05T07:46:00.869Z,17.37
2018-09-05T07:48:29.217Z,18.30
2018-09-05T07:50:57.539Z,18.87
2018-09-05T07:53:25.785Z,17.57
2018-09-05T07:55:54.342Z,17.57
2018-09-05T07:58:22.594Z,16.30
2018-09-05T08:00:51.043Z,15.93
2018-09-05T08:03:19.285Z,17.57
2018-09-05T08:05:47.505Z,17.37
2018-09-05T08:08:15.761Z,17.90
2018-09-05T08:10:43.992Z,17.27
2018-09-05T08:13:12.292Z,17.97
2018-09-05T08:15:40.566Z,18.57
2018-09-05T08:18:08.936Z,18.07
2018-09-05T08:20:37.120Z,18.53
2018-09-05T08:23:05.549Z,17.90
2018-09-05T08:25:33.780Z,17.97
2018-09-05T08:28:03.180Z,17.83
2018-09-05T08:30:31.554Z,17.97
2018-09-05T08:32:59.784Z,18.07
2018-09-05T08:35:28.429Z,20.00
2018-09-05T08:37:56.452Z,20.70
2018-09-05T08:40:24.628Z,21.77
2018-09-05T08:42:52.979Z,21.53
2018-09-05T08:45:21.808Z,20.53
2018-09-05T08:47:49.869Z,20.37
2018-09-05T08:50:18.320Z,21.07
2018-09-05T08:52:46.611Z,20.03
2018-09-05T08:55:14.927Z,18.73
2018-09-05T08:57:43.189Z,19.60
2018-09-05T09:00:11.399Z,19.30
2018-09-05T09:02:39.640Z,19.03
2018-09-05T09:05:08.204Z,18.53
2018-09-05T09:07:36.641Z,18.63
2018-09-05T09:10:05.228Z,18.17
2018-09-05T09:12:33.505Z,18.07
2018-09-05T09:15:01.732Z,16.83
2018-09-05T09:17:29.962Z,18.03
2018-09-05T09:19:58.201Z,18.43
2018-09-05T09:22:26.449Z,18.47
2018-09-05T09:24:54.696Z,18.00
2018-09-05T09:27:22.924Z,18.00
2018-09-05T09:29:51.168Z,17.23
2018-09-05T09:32:19.588Z,18.43
2018-09-05T09:34:47.873Z,16.90
2018-09-05T09:37:16.130Z,15.97
2018-09-05T09:39:44.661Z,17.03
2018-09-05T09:42:12.878Z,17.70
2018-09-05T09:44:41.101Z,18.20
2018-09-05T09:47:09.338Z,18.00
2018-09-05T09:49:37.648Z,16.10
2018-09-05T09:52:11.248Z,17.50
2018-09-05T09:54:39.560Z,16.90
2018-09-05T09:57:07.830Z,15.77
2018-09-05T09:59:36.081Z,16.03
2018-09-05T10:02:09.498Z,16.30
2018-09-05T10:04:43.239Z,16.70
2018-09-05T10:07:16.888Z,16.03
2018-09-05T10:09:50.613Z,15.60
2018-09-05T10:12:24.197Z,16.17
2018-09-05T10:14:56.768Z,16.60
2018-09-05T10:17:32.750Z,17.20
2018-09-05T10:20:01.623Z,16.27
2018-09-05T10:22:31.081Z,15.87
2018-09-05T10:24:59.317Z,16.40
2018-09-05T10:27:28.204Z,15.60
2018-09-05T10:29:56.848Z,15.03
2018-09-05T10:32:25.576Z,15.40
2018-09-05T10:34:54.745Z,14.50
2018-09-05T10:37:22.991Z,13.63
2018-09-05T10:39:51.224Z,13.47
2018-09-05T10:42:19.495Z,12.70
2018-09-05T10:44:47.781Z,11.70
2018-09-05T10:47:16.032Z,12.53
2018-09-05T10:49:44.281Z,11.97
2018-09-05T10:52:12.576Z,12.10
2018-09-05T10:54:41.108Z,11.40
2018-09-05T10:57:09.465Z,11.63
2018-09-05T10:59:39.823Z,11.00
2018-09-05T11:02:08.132Z,11.23
2018-09-05T11:04:36.356Z,10.77
2018-09-05T11:07:04.863Z,11.10
2018-09-05T11:09:33.085Z,11.40
2018-09-05T11:12:01.449Z,10.47
2018-09-05T11:14:30.950Z,9.97
2018-09-05T11:16:59.176Z,11.07
2018-09-05T11:19:27.506Z,9.73
2018-09-05T11:21:55.879Z,9.73
2018-09-05T11:24:24.163Z,9.20
2018-09-05T11:26:52.435Z,9.00
2018-09-05T11:29:20.732Z,9.17
2018-09-05T11:31:49.013Z,9.10
2018-09-05T11:34:17.245Z,8.87
2018-09-05T11:36:45.487Z,8.63
2018-09-05T11:39:14.410Z,9.00
2018-09-05T11:41:42.712Z,9.10
2018-09-05T11:44:11.046Z,8.83
2018-09-05T11:46:45.558Z,9.20
2018-09-05T11:49:13.852Z,7.57
2018-09-05T11:51:42.515Z,8.73
2018-09-05T11:54:10.820Z,8.30
2018-09-05T11:56:39.457Z,7.50
2018-09-05T11:59:08.008Z,7.93
2018-09-05T12:01:36.248Z,7.90
2018-09-05T12:04:04.517Z,8.63
2018-09-05T12:06:32.889Z,8.20
2018-09-05T12:09:01.140Z,7.90
2018-09-05T12:11:29.493Z,7.93
2018-09-05T12:13:57.767Z,8.10
2018-09-05T12:16:25.996Z,9.17
2018-09-05T12:18:54.341Z,10.97
2018-09-05T12:21:22.579Z,7.10
2018-09-05T12:23:50.852Z,7.97
2018-09-05T12:26:19.056Z,7.47
2018-09-05T12:28:47.328Z,8.10
2018-09-05T12:31:17.185Z,7.53
2018-09-05T12:33:45.595Z,7.87
2018-09-05T12:36:14.017Z,6.97
2018-09-05T12:38:42.559Z,7.10
2018-09-05T12:41:10.962Z,7.33
2018-09-05T12:43:39.308Z,7.30
2018-09-05T12:46:07.657Z,7.00
2018-09-05T12:48:36.270Z,7.30
2018-09-05T12:51:04.748Z,7.33
2018-09-05T12:53:33.070Z,7.73
2018-09-05T12:56:01.325Z,7.67
2018-09-05T12:58:29.653Z,7.43
2018-09-05T13:00:57.897Z,7.70
2018-09-05T13:03:26.269Z,9.50
2018-09-05T13:05:54.503Z,7.30
2018-09-05T13:08:22.794Z,7.37
2018-09-05T13:10:51.116Z,7.40
2018-09-05T13:13:19.397Z,6.90
2018-09-05T13:15:47.820Z,6.47
2018-09-05T13:18:16.182Z,6.83
2018-09-05T13:20:44.424Z,6.63
2018-09-05T13:23:12.803Z,11.80
2018-09-05T13:25:41.232Z,6.53
2018-09-05T13:28:09.612Z,6.73
2018-09-05T13:30:37.955Z,6.40
2018-09-05T13:33:06.490Z,6.87
2018-09-05T13:35:34.885Z,7.03
2018-09-05T13:38:04.653Z,7.83
2018-09-05T13:40:33.113Z,7.10
2018-09-05T13:43:01.458Z,6.57
2018-09-05T13:45:30.114Z,6.70
2018-09-05T13:47:58.432Z,6.53
2018-09-05T13:50:26.764Z,6.90
2018-09-05T13:52:55.075Z,7.30
2018-09-05T13:55:23.356Z,7.03
2018-09-05T13:57:51.621Z,7.03
2018-09-05T14:00:19.903Z,7.83
2018-09-05T14:02:48.624Z,7.23
2018-09-05T14:05:17.461Z,6.83
2018-09-05T14:07:45.705Z,6.50
2018-09-05T14:10:15.048Z,6.50
2018-09-05T14:12:43.349Z,6.63
2018-09-05T14:15:11.615Z,6.13
2018-09-05T14:17:39.897Z,6.73
2018-09-05T14:20:08.148Z,6.60
2018-09-05T14:22:37.404Z,6.40
2018-09-05T14:25:05.669Z,5.97
2018-09-05T14:27:33.970Z,6.17
2018-09-05T14:30:02.285Z,7.23
2018-09-05T14:32:30.572Z,6.53
2018-09-05T14:34:58.786Z,6.63
2018-09-05T14:37:27.013Z,6.70
2018-09-05T14:42:29.573Z,6.87
2018-09-05T14:44:57.848Z,7.23
2018-09-05T14:47:26.065Z,6.77
2018-09-05T14:49:54.344Z,7.80
2018-09-05T14:52:22.613Z,6.90
2018-09-05T14:54:51.013Z,7.33
2018-09-05T14:57:19.301Z,7.20
2018-09-05T14:59:47.670Z,7.30
2018-09-05T15:02:15.836Z,7.17
2018-09-05T15:04:44.101Z,7.13
2018-09-05T15:07:12.317Z,7.50
2018-09-05T15:09:40.573Z,7.20
2018-09-05T15:12:08.799Z,7.00
2018-09-05T15:14:37.060Z,6.40
2018-09-05T15:17:05.324Z,6.83
2018-09-05T15:19:33.556Z,6.77
2018-09-05T15:22:01.812Z,7.30
2018-09-05T15:24:30.022Z,6.70
2018-09-05T15:26:58.260Z,7.33
2018-09-05T15:29:26.463Z,6.90
2018-09-05T15:31:54.776Z,7.17
2018-09-05T15:34:23.046Z,7.60
2018-09-05T15:36:51.292Z,7.80
2018-09-05T15:39:19.576Z,7.13
2018-09-05T15:41:47.860Z,6.60
2018-09-05T15:44:16.177Z,8.10
2018-09-05T15:46:44.691Z,7.80
2018-09-05T15:49:14.045Z,7.20
2018-09-05T15:51:42.280Z,7.30
2018-09-05T15:54:10.522Z,7.00
2018-09-05T15:56:38.769Z,7.60
2018-09-05T15:59:07.035Z,8.77
2018-09-05T16:01:35.296Z,10.30
2018-09-05T16:04:03.544Z,8.07
2018-09-05T16:06:31.826Z,7.83
2018-09-05T16:09:00.093Z,7.50
2018-09-05T16:11:28.324Z,7.10
2018-09-05T16:13:56.613Z,7.70
2018-09-05T16:16:24.914Z,7.27
2018-09-05T16:18:53.203Z,7.30
2018-09-05T16:21:21.502Z,7.50
2018-09-05T16:23:49.760Z,6.83
2018-09-05T16:26:18.017Z,8.27
2018-09-05T16:28:46.283Z,8.53
2018-09-05T16:31:14.759Z,10.27
2018-09-05T16:33:43.025Z,8.20
2018-09-05T16:36:11.346Z,8.77
2018-09-05T16:38:39.713Z,9.80
2018-09-05T16:41:07.956Z,8.40
2018-09-05T16:43:36.230Z,8.87
2018-09-05T16:46:04.452Z,7.57
2018-09-05T16:48:32.785Z,11.33
2018-09-05T16:51:01.004Z,12.67
2018-09-05T16:53:29.272Z,9.50
2018-09-05T16:55:57.531Z,8.77
2018-09-05T16:58:25.879Z,10.03
2018-09-05T17:00:54.128Z,10.20
2018-09-05T17:03:22.370Z,9.00
2018-09-05T17:05:50.638Z,7.30
2018-09-05T17:08:18.928Z,8.30
2018-09-05T17:10:47.255Z,8.87
2018-09-05T17:13:15.514Z,9.80
2018-09-05T17:15:43.748Z,8.40
2018-09-05T17:18:12.005Z,9.87
2018-09-05T17:20:40.272Z,8.67
2018-09-05T17:23:08.492Z,8.83
2018-09-05T17:25:36.744Z,8.27
2018-09-05T17:28:04.981Z,7.90
2018-09-05T17:30:33.251Z,7.67
2018-09-05T17:33:01.493Z,6.87
2018-09-05T17:35:29.785Z,8.10
2018-09-05T17:37:58.046Z,7.87
2018-09-05T17:40:26.312Z,7.80
2018-09-05T17:42:54.556Z,7.80
2018-09-05T17:45:22.792Z,10.63
2018-09-05T17:47:51.033Z,8.87
2018-09-05T17:50:19.320Z,8.43
2018-09-05T17:52:53.562Z,8.87
2018-09-05T17:55:21.812Z,9.33
2018-09-05T17:57:50.092Z,9.30
2018-09-05T18:00:18.342Z,8.70
2018-09-05T18:02:46.605Z,8.50
2018-09-05T18:05:14.831Z,8.17
2018-09-05T18:07:43.093Z,8.50
2018-09-05T18:10:11.321Z,8.07
2018-09-05T18:12:39.598Z,7.80
2018-09-05T18:15:07.818Z,8.00
2018-09-05T18:17:36.097Z,8.67
2018-09-05T18:20:04.364Z,8.87
2018-09-05T18:22:32.620Z,8.40
2018-09-05T18:25:00.857Z,8.17
2018-09-05T18:27:29.103Z,8.37
2018-09-05T18:29:57.340Z,8.57
2018-09-05T18:32:25.620Z,8.30
2018-09-05T18:34:53.850Z,8.13
2018-09-05T18:37:22.097Z,8.77
2018-09-05T18:39:50.361Z,8.27
2018-09-05T18:42:18.597Z,9.03
2018-09-05T18:44:46.835Z,9.07
2018-09-05T18:47:15.077Z,8.43
2018-09-05T18:49:43.332Z,9.03
2018-09-05T18:52:11.656Z,8.67
2018-09-05T18:54:39.889Z,8.37
2018-09-05T18:57:08.129Z,8.27
2018-09-05T18:59:36.385Z,7.53
2018-09-05T19:02:04.657Z,8.60
2018-09-05T19:04:32.908Z,8.20
2018-09-05T19:07:01.244Z,9.63
2018-09-05T19:09:30.524Z,8.63
2018-09-05T19:11:58.773Z,8.43
2018-09-05T19:14:27.025Z,8.77
2018-09-05T19:16:55.270Z,8.20
2018-09-05T19:19:23.578Z,8.57
2018-09-05T19:21:51.788Z,8.70
2018-09-05T19:24:20.067Z,8.27
2018-09-05T19:26:48.320Z,8.10
2018-09-05T19:29:17.563Z,8.60
2018-09-05T19:31:45.773Z,8.70
2018-09-05T19:34:14.008Z,9.37
2018-09-05T19:36:42.248Z,8.20
2018-09-05T19:39:11.472Z,8.87
2018-09-05T19:41:39.720Z,9.20
2018-09-05T19:44:08.121Z,9.20
2018-09-05T19:46:36.408Z,7.97
2018-09-05T19:49:04.676Z,8.90
2018-09-05T19:51:32.941Z,7.67
2018-09-05T19:54:01.155Z,8.40
2018-09-05T19:56:29.427Z,8.57
2018-09-05T19:58:57.669Z,8.33
2018-09-05T20:01:25.921Z,8.77
2018-09-05T20:03:54.161Z,8.57
2018-09-05T20:06:22.444Z,9.10
2018-09-05T20:08:50.715Z,8.77
2018-09-05T20:11:18.964Z,8.70
2018-09-05T20:13:47.189Z,9.60
2018-09-05T20:16:15.484Z,9.43
2018-09-05T20:18:43.720Z,11.73
2018-09-05T20:21:11.996Z,10.47
2018-09-05T20:23:40.248Z,10.77
2018-09-05T20:26:08.516Z,9.53
2018-09-05T20:28:36.732Z,9.50
2018-09-05T20:31:05.137Z,9.67
2018-09-05T20:33:33.468Z,9.23
2018-09-05T20:36:01.714Z,8.97
2018-09-05T20:38:31.134Z,8.97
2018-09-05T20:40:59.397Z,9.10
2018-09-05T20:43:27.686Z,9.40
2018-09-05T20:45:56.016Z,8.87
2018-09-05T20:48:24.292Z,9.10
2018-09-05T20:50:52.644Z,10.00
2018-09-05T20:53:20.885Z,10.20
2018-09-05T20:55:49.128Z,9.60
2018-09-05T20:58:17.440Z,9.53
2018-09-05T21:00:46.070Z,10.00
2018-09-05T21:03:14.329Z,9.63
2018-09-05T21:05:42.573Z,9.40
2018-09-05T21:08:10.796Z,9.50
2018-09-05T21:10:39.025Z,9.77
2018-09-05T21:13:07.232Z,9.67
2018-09-05T21:15:35.476Z,10.20
2018-09-05T21:18:03.776Z,9.53
2018-09-05T21:20:31.949Z,9.97
2018-09-05T21:23:00.156Z,9.77
2018-09-05T21:25:28.404Z,9.40
2018-09-05T21:27:56.624Z,10.37
2018-09-05T21:30:24.848Z,9.93
2018-09-05T21:32:53.064Z,10.00
2018-09-05T21:35:21.300Z,9.67
2018-09-05T21:37:49.516Z,9.60
2018-09-05T21:42:52.032Z,9.77
2018-09-05T21:45:20.261Z,9.77
2018-09-05T21:47:48.488Z,9.50
2018-09-05T21:50:18.397Z,9.80
2018-09-05T21:52:46.700Z,9.67
2018-09-05T21:55:14.857Z,9.30
2018-09-05T21:57:43.104Z,9.90
2018-09-05T22:00:11.688Z,9.50
2018-09-05T22:02:39.924Z,9.73
2018-09-05T22:05:08.164Z,9.17
2018-09-05T22:07:36.423Z,9.30
2018-09-05T22:10:04.644Z,10.00
2018-09-05T22:12:32.872Z,9.70
2018-09-05T22:15:01.084Z,9.50
2018-09-05T22:17:29.314Z,9.77
2018-09-05T22:19:57.536Z,9.80
2018-09-05T22:22:25.796Z,10.00
2018-09-05T22:24:54.079Z,10.00
2018-09-05T22:27:22.300Z,10.00
2018-09-05T22:29:50.588Z,10.00
2018-09-05T22:32:18.844Z,9.70
2018-09-05T22:34:47.056Z,10.10
2018-09-05T22:37:15.270Z,10.27
2018-09-05T22:39:43.504Z,10.30
2018-09-05T22:42:13.077Z,10.47
2018-09-05T22:44:53.913Z,10.97
2018-09-05T22:47:33.426Z,10.40
2018-09-05T22:52:22.934Z,10.17
2018-09-05T22:56:15.634Z,9.63
2018-09-05T23:01:01.416Z,10.97
2018-09-05T23:05:49.705Z,10.13
2018-09-05T23:08:32.996Z,10.13
2018-09-05T23:11:12.645Z,10.13
2018-09-05T23:13:52.276Z,10.57
2018-09-05T23:16:31.881Z,10.23
2018-09-05T23:19:25.845Z,10.33
2018-09-05T23:21:54.081Z,10.97
2018-09-05T23:24:22.321Z,10.63
2018-09-05T23:26:50.597Z,10.90
2018-09-05T23:29:18.809Z,10.70
2018-09-05T23:31:47.057Z,10.80
2018-09-05T23:34:15.275Z,10.70
2018-09-05T23:36:43.529Z,10.60
2018-09-05T23:39:11.758Z,11.43
2018-09-05T23:41:40.119Z,10.13
2018-09-05T23:44:08.333Z,10.77
2018-09-05T23:46:36.554Z,10.97
2018-09-05T23:49:04.836Z,10.73
2018-09-05T23:51:33.109Z,10.57
2018-09-05T23:54:01.434Z,10.37
2018-09-05T23:56:29.665Z,11.17
2018-09-05T23:58:57.941Z,10.83
